createdAt,value
2019-01-13T00:01:02.763Z,8.60
2019-01-13T00:03:35.120Z,6.33
2019-01-13T00:06:07.920Z,10.33
2019-01-13T00:08:40.285Z,9.17
2019-01-13T00:11:14.186Z,18.00
2019-01-13T00:13:48.194Z,13.40
2019-01-13T00:16:20.504Z,11.03
2019-01-13T00:18:53.159Z,7.40
2019-01-13T00:21:25.618Z,14.27
2019-01-13T00:23:58.750Z,12.27
2019-01-13T00:26:32.039Z,6.57
2019-01-13T00:29:04.564Z,12.07
2019-01-13T00:31:37.439Z,19.60
2019-01-13T00:34:10.184Z,13.30
2019-01-13T00:36:42.549Z,10.77
2019-01-13T00:39:15.093Z,10.03
2019-01-13T00:41:48.074Z,4.40
2019-01-13T00:44:20.259Z,13.03
2019-01-13T00:46:52.729Z,8.87
2019-01-13T00:49:24.719Z,18.80
2019-01-13T00:51:57.493Z,13.80
2019-01-13T00:54:32.684Z,21.23
2019-01-13T00:57:05.369Z,14.20
2019-01-13T00:59:37.989Z,10.67
2019-01-13T01:02:11.154Z,8.13
2019-01-13T01:04:43.298Z,20.73
2019-01-13T01:07:15.809Z,7.17
2019-01-13T01:09:59.660Z,10.77
2019-01-13T01:12:32.334Z,9.13
2019-01-13T01:15:04.741Z,13.53
2019-01-13T01:17:37.219Z,7.57
2019-01-13T01:20:11.574Z,11.20
2019-01-13T01:22:44.394Z,16.23
2019-01-13T01:25:18.828Z,21.67
2019-01-13T01:27:50.978Z,7.53
2019-01-13T01:30:23.743Z,15.17
2019-01-13T01:32:56.954Z,21.73
2019-01-13T01:35:29.455Z,9.30
2019-01-13T01:38:01.969Z,11.87
2019-01-13T01:40:34.139Z,7.50
2019-01-13T01:43:07.010Z,13.03
2019-01-13T01:45:39.414Z,10.53
2019-01-13T01:48:12.113Z,9.00
2019-01-13T01:50:44.188Z,7.13
2019-01-13T01:53:16.933Z,7.60
2019-01-13T01:55:49.519Z,15.87
2019-01-13T01:58:24.659Z,6.03
2019-01-13T02:00:57.786Z,13.30
2019-01-13T02:03:32.344Z,5.57
2019-01-13T02:06:05.506Z,7.87
2019-01-13T02:08:38.670Z,15.00
2019-01-13T02:11:11.011Z,20.70
2019-01-13T02:13:44.449Z,8.77
2019-01-13T02:16:17.068Z,9.93
2019-01-13T02:18:49.426Z,13.47
2019-01-13T02:21:21.684Z,12.00
2019-01-13T02:23:54.023Z,8.43
2019-01-13T02:26:27.538Z,11.07
2019-01-13T02:28:59.780Z,9.63
2019-01-13T02:31:31.923Z,8.23
2019-01-13T02:34:04.119Z,9.23
2019-01-13T02:36:36.759Z,4.93
2019-01-13T02:39:09.844Z,9.33
2019-01-13T02:41:42.089Z,14.33
2019-01-13T02:44:14.434Z,16.97
2019-01-13T02:46:47.168Z,14.03
2019-01-13T02:49:19.585Z,20.10
2019-01-13T02:51:52.219Z,12.97
2019-01-13T02:54:24.439Z,3.67
2019-01-13T02:56:57.138Z,14.70
2019-01-13T02:59:29.595Z,17.70
2019-01-13T03:02:03.020Z,11.73
2019-01-13T03:04:35.249Z,15.33
2019-01-13T03:07:07.543Z,8.67
2019-01-13T03:09:39.844Z,6.10
2019-01-13T03:12:13.265Z,11.70
2019-01-13T03:14:46.892Z,14.63
2019-01-13T03:17:19.143Z,10.17
2019-01-13T03:19:51.620Z,7.33
2019-01-13T03:22:27.389Z,4.73
2019-01-13T03:24:59.598Z,8.37
2019-01-13T03:27:33.499Z,12.50
2019-01-13T03:30:06.744Z,8.50
2019-01-13T03:32:40.805Z,15.63
2019-01-13T03:35:13.309Z,10.20
2019-01-13T03:37:45.668Z,14.00
2019-01-13T03:40:25.484Z,7.63
2019-01-13T03:43:00.758Z,5.27
2019-01-13T03:45:34.849Z,8.20
2019-01-13T03:48:07.159Z,8.77
2019-01-13T03:50:39.363Z,6.10
2019-01-13T03:53:11.643Z,4.97
2019-01-13T03:55:43.703Z,10.77
2019-01-13T03:58:15.795Z,8.07
2019-01-13T04:00:48.124Z,6.83
2019-01-13T04:03:20.385Z,8.03
2019-01-13T04:05:53.039Z,12.37
2019-01-13T04:08:25.685Z,3.93
2019-01-13T04:10:57.844Z,9.50
2019-01-13T04:13:30.348Z,7.33
2019-01-13T04:16:03.844Z,9.33
2019-01-13T04:18:36.143Z,9.87
2019-01-13T04:21:10.639Z,5.27
2019-01-13T04:23:42.980Z,2.23
2019-01-13T04:26:15.374Z,4.57
2019-01-13T04:28:48.629Z,2.27
2019-01-13T04:31:26.617Z,17.57
2019-01-13T04:33:55.075Z,5.10
2019-01-13T04:36:27.359Z,6.67
2019-01-13T04:38:59.495Z,7.27
2019-01-13T04:41:31.699Z,3.50
2019-01-13T04:44:05.060Z,12.23
2019-01-13T04:46:38.597Z,4.47
2019-01-13T04:49:10.965Z,17.53
2019-01-13T04:51:43.625Z,5.90
2019-01-13T04:54:15.810Z,4.00
2019-01-13T04:56:47.966Z,13.47
2019-01-13T04:59:20.189Z,15.93
2019-01-13T05:01:52.215Z,10.47
2019-01-13T05:04:25.694Z,3.67
2019-01-13T05:06:59.162Z,7.80
2019-01-13T05:09:31.400Z,6.90
2019-01-13T05:12:03.680Z,15.80
2019-01-13T05:14:35.924Z,3.20
2019-01-13T05:17:08.360Z,9.73
2019-01-13T05:19:40.322Z,24.07
2019-01-13T05:22:12.584Z,16.67
2019-01-13T05:24:44.644Z,14.03
2019-01-13T05:27:17.214Z,7.80
2019-01-13T05:29:50.624Z,9.33
2019-01-13T05:32:22.823Z,20.73
2019-01-13T05:34:55.059Z,12.67
2019-01-13T05:37:30.000Z,20.43
2019-01-13T05:40:03.462Z,11.90
2019-01-13T05:42:36.148Z,13.33
2019-01-13T05:45:09.884Z,23.20
2019-01-13T05:47:42.472Z,13.33
2019-01-13T05:50:16.374Z,16.67
2019-01-13T05:52:51.178Z,20.17
2019-01-13T05:55:23.384Z,31.87
2019-01-13T05:57:55.794Z,10.47
2019-01-13T06:00:32.129Z,14.23
2019-01-13T06:03:04.449Z,3.43
2019-01-13T06:05:36.712Z,5.27
2019-01-13T06:08:08.929Z,19.43
2019-01-13T06:10:41.024Z,15.47
2019-01-13T06:13:13.169Z,14.50
2019-01-13T06:15:45.827Z,12.03
2019-01-13T06:18:18.430Z,6.30
2019-01-13T06:20:51.484Z,14.17
2019-01-13T06:23:23.715Z,19.90
2019-01-13T06:25:56.254Z,8.97
2019-01-13T06:28:28.631Z,5.37
2019-01-13T06:31:02.679Z,12.73
2019-01-13T06:33:35.264Z,19.17
2019-01-13T06:36:08.016Z,9.07
2019-01-13T06:38:41.674Z,4.40
2019-01-13T06:41:14.219Z,8.37
2019-01-13T06:43:46.493Z,16.90
2019-01-13T06:46:18.579Z,4.33
2019-01-13T06:48:50.771Z,18.73
2019-01-13T06:51:23.078Z,12.20
2019-01-13T06:53:56.694Z,7.87
2019-01-13T06:56:30.354Z,13.40
2019-01-13T06:59:03.954Z,14.13
2019-01-13T07:01:36.279Z,15.07
2019-01-13T07:04:08.749Z,8.03
2019-01-13T07:06:41.124Z,9.93
2019-01-13T07:09:13.379Z,16.00
2019-01-13T07:11:45.504Z,13.17
2019-01-13T07:14:17.939Z,7.17
2019-01-13T07:16:50.398Z,22.10
2019-01-13T07:19:23.208Z,7.07
2019-01-13T07:21:55.544Z,20.07
2019-01-13T07:24:28.233Z,3.17
2019-01-13T07:27:00.631Z,16.43
2019-01-13T07:29:33.005Z,11.63
2019-01-13T07:32:10.906Z,29.73
2019-01-13T07:34:42.234Z,13.47
2019-01-13T07:37:15.699Z,12.07
2019-01-13T07:39:48.088Z,12.87
2019-01-13T07:42:20.859Z,12.30
2019-01-13T07:44:53.244Z,13.40
2019-01-13T07:47:25.489Z,14.40
2019-01-13T07:50:00.088Z,9.70
2019-01-13T07:52:32.546Z,15.13
2019-01-13T07:55:05.034Z,7.03
2019-01-13T07:57:37.409Z,17.23
2019-01-13T08:00:14.614Z,33.90
2019-01-13T08:02:46.824Z,33.83
2019-01-13T08:05:19.814Z,17.93
2019-01-13T08:07:52.107Z,29.27
2019-01-13T08:10:24.884Z,21.77
2019-01-13T08:12:57.213Z,22.43
2019-01-13T08:15:29.900Z,6.43
2019-01-13T08:18:02.298Z,7.37
2019-01-13T08:20:35.523Z,5.33
2019-01-13T08:23:07.694Z,19.70
2019-01-13T08:25:40.178Z,16.80
2019-01-13T08:28:12.439Z,13.87
2019-01-13T08:30:45.890Z,21.23
2019-01-13T08:33:20.493Z,18.73
2019-01-13T08:35:53.783Z,12.50
2019-01-13T08:38:26.969Z,10.60
2019-01-13T08:40:59.349Z,14.17
2019-01-13T08:43:32.069Z,15.43
2019-01-13T08:46:04.624Z,45.20
2019-01-13T08:48:36.909Z,8.77
2019-01-13T08:51:10.426Z,17.20
2019-01-13T08:53:43.429Z,18.20
2019-01-13T08:56:18.194Z,37.43
2019-01-13T08:58:50.779Z,27.60
2019-01-13T09:01:23.184Z,16.77
2019-01-13T09:03:56.651Z,34.37
2019-01-13T09:06:29.470Z,34.70
2019-01-13T09:09:02.940Z,33.90
2019-01-13T09:11:36.544Z,17.33
2019-01-13T09:14:09.590Z,10.13
2019-01-13T09:16:43.209Z,21.23
2019-01-13T09:19:15.584Z,14.50
2019-01-13T09:21:48.204Z,23.53
2019-01-13T09:24:20.926Z,30.17
2019-01-13T09:26:53.795Z,22.23
2019-01-13T09:29:26.075Z,29.83
2019-01-13T09:31:58.584Z,32.33
2019-01-13T09:34:32.243Z,16.93
2019-01-13T09:37:05.777Z,46.63
2019-01-13T09:39:38.240Z,32.20
2019-01-13T09:42:11.474Z,29.80
2019-01-13T09:44:43.725Z,32.50
2019-01-13T09:47:17.543Z,30.70
2019-01-13T09:49:50.694Z,44.57
2019-01-13T09:52:23.308Z,35.47
2019-01-13T09:54:55.624Z,39.63
2019-01-13T09:57:28.603Z,22.43
2019-01-13T10:00:00.879Z,33.40
2019-01-13T10:02:33.439Z,30.27
2019-01-13T10:05:06.754Z,17.73
2019-01-13T10:07:39.064Z,39.00
2019-01-13T10:10:13.589Z,33.87
2019-01-13T10:12:46.669Z,28.60
2019-01-13T10:15:21.174Z,50.27
2019-01-13T10:17:54.294Z,19.20
2019-01-13T10:20:26.644Z,16.93
2019-01-13T10:23:00.789Z,28.30
2019-01-13T10:25:33.124Z,35.40
2019-01-13T10:28:05.743Z,51.00
2019-01-13T10:30:38.499Z,38.70
2019-01-13T10:33:10.901Z,22.63
2019-01-13T10:35:43.753Z,30.33
2019-01-13T10:38:17.280Z,30.63
2019-01-13T10:40:49.523Z,32.80
2019-01-13T10:43:21.969Z,35.83
2019-01-13T10:45:54.649Z,24.93
2019-01-13T10:48:26.880Z,33.87
2019-01-13T10:51:00.234Z,30.03
2019-01-13T10:53:32.832Z,42.73
2019-01-13T10:56:05.319Z,31.67
2019-01-13T10:58:38.719Z,35.53
2019-01-13T11:01:11.335Z,64.73
2019-01-13T11:03:43.763Z,47.63
2019-01-13T11:06:16.579Z,45.67
2019-01-13T11:08:48.879Z,18.37
2019-01-13T11:11:22.075Z,28.50
2019-01-13T11:13:54.533Z,43.23
2019-01-13T11:16:28.024Z,47.30
2019-01-13T11:19:00.299Z,39.73
2019-01-13T11:21:33.060Z,47.87
2019-01-13T11:24:05.670Z,64.13
2019-01-13T11:26:38.763Z,36.67
2019-01-13T11:29:11.115Z,42.93
2019-01-13T11:31:43.371Z,32.20
2019-01-13T11:34:15.735Z,60.60
2019-01-13T11:36:49.235Z,54.93
2019-01-13T11:39:22.949Z,64.43
2019-01-13T11:41:55.171Z,36.70
2019-01-13T11:44:28.013Z,39.07
2019-01-13T11:47:00.424Z,47.80
2019-01-13T11:49:31.604Z,46.03
2019-01-13T11:52:03.847Z,43.80
2019-01-13T11:54:36.820Z,41.53
2019-01-13T11:57:26.554Z,47.17
2019-01-13T12:00:00.980Z,33.10
2019-01-13T12:02:34.339Z,37.63
2019-01-13T12:05:08.429Z,30.50
2019-01-13T12:07:40.734Z,37.20
2019-01-13T12:10:14.949Z,34.70
2019-01-13T12:12:47.456Z,58.80
2019-01-13T12:15:21.210Z,52.07
2019-01-13T12:17:54.380Z,49.77
2019-01-13T12:20:27.074Z,44.97
2019-01-13T12:23:00.315Z,66.67
2019-01-13T12:25:36.359Z,49.17
2019-01-13T12:28:08.709Z,81.40
2019-01-13T12:30:40.999Z,60.47
2019-01-13T12:33:14.319Z,70.37
2019-01-13T12:35:47.370Z,40.50
2019-01-13T12:38:20.735Z,54.97
2019-01-13T12:40:53.180Z,44.93
2019-01-13T12:43:26.439Z,42.57
2019-01-13T12:45:59.214Z,70.17
2019-01-13T12:48:32.145Z,74.63
2019-01-13T12:51:04.479Z,64.23
2019-01-13T12:53:36.875Z,103.97
2019-01-13T12:56:09.445Z,93.47
2019-01-13T12:58:41.760Z,83.73
2019-01-13T13:01:15.159Z,93.67
2019-01-13T13:03:48.279Z,87.17
2019-01-13T13:06:21.805Z,61.73
2019-01-13T13:08:55.500Z,98.63
2019-01-13T13:11:29.170Z,114.53
2019-01-13T13:14:02.079Z,79.03
2019-01-13T13:16:34.954Z,90.67
2019-01-13T13:19:08.185Z,122.70
2019-01-13T13:21:40.970Z,120.67
2019-01-13T13:24:13.579Z,105.07
2019-01-13T13:26:46.149Z,115.77
2019-01-13T13:29:18.429Z,92.97
2019-01-13T13:31:50.874Z,116.53
2019-01-13T13:34:24.409Z,124.03
2019-01-13T13:36:56.774Z,91.53
2019-01-13T13:39:30.018Z,81.70
2019-01-13T13:42:02.409Z,84.13
2019-01-13T13:44:35.081Z,97.23
2019-01-13T13:47:07.509Z,106.03
2019-01-13T13:49:40.109Z,98.43
2019-01-13T13:52:12.410Z,88.70
2019-01-13T13:54:46.590Z,112.93
2019-01-13T13:57:19.369Z,120.37
2019-01-13T13:59:51.734Z,117.37
2019-01-13T14:02:24.299Z,107.67
2019-01-13T14:04:57.079Z,84.73
2019-01-13T14:07:30.734Z,92.53
2019-01-13T14:10:05.429Z,102.07
2019-01-13T14:12:38.199Z,77.07
2019-01-13T14:15:11.085Z,78.73
2019-01-13T14:17:43.759Z,53.80
2019-01-13T14:20:19.153Z,54.63
2019-01-13T14:22:51.398Z,88.60
2019-01-13T14:25:23.569Z,87.47
2019-01-13T14:27:56.464Z,73.50
2019-01-13T14:30:30.432Z,69.37
2019-01-13T14:33:02.843Z,49.37
2019-01-13T14:35:35.134Z,69.90
2019-01-13T14:38:07.594Z,86.13
2019-01-13T14:40:41.089Z,54.93
2019-01-13T14:43:13.428Z,45.73
2019-01-13T14:45:46.973Z,87.30
2019-01-13T14:48:19.301Z,83.60
2019-01-13T14:50:51.576Z,42.70
2019-01-13T14:53:24.893Z,39.40
2019-01-13T14:55:57.194Z,43.13
2019-01-13T14:58:31.013Z,52.27
2019-01-13T15:01:03.183Z,64.00
2019-01-13T15:03:35.649Z,52.20
2019-01-13T15:06:07.969Z,66.10
2019-01-13T15:08:42.458Z,34.13
2019-01-13T15:11:14.775Z,65.37
2019-01-13T15:13:47.104Z,39.33
2019-01-13T15:16:20.434Z,41.97
2019-01-13T15:18:54.784Z,82.90
2019-01-13T15:21:28.155Z,47.73
2019-01-13T15:24:01.739Z,67.27
2019-01-13T15:26:34.624Z,52.97
2019-01-13T15:29:07.508Z,55.47
2019-01-13T15:31:40.254Z,48.67
2019-01-13T15:34:13.073Z,74.83
2019-01-13T15:36:45.285Z,51.50
2019-01-13T15:39:17.614Z,45.07
2019-01-13T15:41:52.045Z,50.67
2019-01-13T15:44:24.349Z,75.33
2019-01-13T15:46:57.358Z,49.80
2019-01-13T15:49:30.948Z,63.87
2019-01-13T15:52:03.429Z,80.13
2019-01-13T15:54:35.734Z,57.07
2019-01-13T15:57:08.793Z,53.07
2019-01-13T15:59:41.895Z,72.23
2019-01-13T16:02:14.569Z,66.23
2019-01-13T16:04:48.016Z,46.73
2019-01-13T16:07:21.539Z,50.00
2019-01-13T16:09:54.048Z,43.80
2019-01-13T16:12:27.044Z,45.03
2019-01-13T16:14:59.674Z,73.07
2019-01-13T16:17:31.814Z,43.13
2019-01-13T16:20:04.199Z,67.73
2019-01-13T16:22:37.895Z,57.50
2019-01-13T16:25:11.676Z,69.27
2019-01-13T16:27:43.889Z,114.40
2019-01-13T16:30:21.779Z,61.37
2019-01-13T16:32:55.078Z,67.77
2019-01-13T16:35:28.143Z,49.50
2019-01-13T16:38:01.064Z,97.77
2019-01-13T16:40:34.732Z,68.40
2019-01-13T16:43:08.519Z,87.13
2019-01-13T16:45:41.868Z,110.93
2019-01-13T16:48:14.623Z,111.77
2019-01-13T16:50:47.458Z,70.20
2019-01-13T16:53:20.379Z,96.50
2019-01-13T16:55:53.971Z,94.57
2019-01-13T16:58:27.419Z,96.17
2019-01-13T17:01:01.294Z,93.97
2019-01-13T17:03:34.736Z,89.77
2019-01-13T17:06:08.544Z,134.77
2019-01-13T17:08:42.034Z,107.70
2019-01-13T17:11:17.864Z,93.83
2019-01-13T17:13:53.005Z,148.33
2019-01-13T17:16:32.014Z,126.37
2019-01-13T17:19:06.999Z,93.30
2019-01-13T17:21:40.889Z,103.33
2019-01-13T17:24:13.824Z,96.40
2019-01-13T17:26:49.549Z,76.87
2019-01-13T17:29:22.309Z,84.40
2019-01-13T17:31:56.339Z,89.43
2019-01-13T17:34:35.703Z,108.67
2019-01-13T17:37:04.949Z,79.63
2019-01-13T17:39:38.072Z,66.20
2019-01-13T17:42:11.889Z,97.13
2019-01-13T17:44:45.534Z,97.30
2019-01-13T17:47:19.764Z,78.30
2019-01-13T17:49:54.501Z,92.20
2019-01-13T17:52:28.914Z,96.83
2019-01-13T17:55:04.004Z,95.43
2019-01-13T17:57:39.146Z,102.77
2019-01-13T18:00:21.420Z,77.50
2019-01-13T18:02:58.465Z,115.97
2019-01-13T18:05:33.600Z,77.40
2019-01-13T18:08:07.309Z,101.80
2019-01-13T18:10:40.989Z,73.67
2019-01-13T18:13:14.869Z,112.53
2019-01-13T18:15:49.109Z,117.53
2019-01-13T18:18:23.091Z,70.33
2019-01-13T18:20:57.010Z,113.90
2019-01-13T18:23:31.179Z,132.63
2019-01-13T18:26:05.904Z,93.90
2019-01-13T18:28:39.905Z,117.10
2019-01-13T18:31:13.450Z,88.40
2019-01-13T18:33:51.550Z,102.53
2019-01-13T18:36:25.264Z,94.80
2019-01-13T18:38:58.949Z,125.13
2019-01-13T18:41:33.261Z,110.23
2019-01-13T18:44:07.395Z,76.90
2019-01-13T18:46:41.714Z,128.93
2019-01-13T18:49:15.770Z,83.07
2019-01-13T18:51:50.080Z,101.10
2019-01-13T18:54:23.950Z,83.83
2019-01-13T18:56:57.869Z,106.13
2019-01-13T18:59:32.565Z,83.40
2019-01-13T19:02:06.940Z,73.60
2019-01-13T19:04:41.044Z,90.87
2019-01-13T19:07:14.874Z,74.53
2019-01-13T19:09:48.631Z,71.87
2019-01-13T19:12:22.699Z,82.87
2019-01-13T19:15:01.000Z,84.23
2019-01-13T19:17:35.109Z,76.23
2019-01-13T19:20:26.409Z,54.20
2019-01-13T19:23:06.209Z,65.57
2019-01-13T19:25:39.681Z,58.17
2019-01-13T19:28:13.160Z,50.17
2019-01-13T19:30:46.514Z,71.03
2019-01-13T19:33:19.900Z,64.97
2019-01-13T19:35:53.606Z,81.77
2019-01-13T19:38:26.944Z,86.20
2019-01-13T19:41:01.047Z,73.57
2019-01-13T19:43:37.233Z,41.30
2019-01-13T19:46:11.275Z,51.00
2019-01-13T19:48:45.579Z,40.83
2019-01-13T19:51:19.559Z,44.70
2019-01-13T19:53:53.149Z,44.87
2019-01-13T19:56:27.329Z,55.90
2019-01-13T19:59:01.699Z,57.73
2019-01-13T20:01:36.338Z,38.47
2019-01-13T20:04:13.810Z,25.57
2019-01-13T20:06:51.699Z,44.37
2019-01-13T20:09:26.194Z,50.10
2019-01-13T20:12:00.534Z,30.33
2019-01-13T20:14:34.774Z,33.53
2019-01-13T20:17:08.339Z,61.03
2019-01-13T20:19:43.249Z,40.17
2019-01-13T20:22:16.914Z,60.80
2019-01-13T20:24:50.694Z,43.43
2019-01-13T20:27:25.394Z,52.73
2019-01-13T20:29:59.170Z,46.50
2019-01-13T20:32:34.619Z,59.50
2019-01-13T20:35:09.579Z,95.50
2019-01-13T20:37:43.359Z,57.13
2019-01-13T20:40:17.732Z,40.87
2019-01-13T20:42:51.289Z,58.67
2019-01-13T20:45:34.623Z,47.17
2019-01-13T20:48:08.675Z,33.07
2019-01-13T20:50:43.119Z,20.30
2019-01-13T20:53:18.618Z,40.07
2019-01-13T20:55:52.784Z,58.80
2019-01-13T20:58:26.454Z,68.33
2019-01-13T21:01:00.029Z,47.33
2019-01-13T21:03:33.619Z,55.93
2019-01-13T21:06:09.839Z,41.57
2019-01-13T21:08:44.128Z,42.23
2019-01-13T21:11:18.044Z,78.60
2019-01-13T21:13:51.893Z,50.87
2019-01-13T21:16:27.344Z,64.43
2019-01-13T21:19:03.765Z,43.20
2019-01-13T21:21:37.900Z,39.33
2019-01-13T21:24:12.479Z,29.40
2019-01-13T21:26:46.656Z,32.13
2019-01-13T21:29:21.644Z,54.13
2019-01-13T21:31:55.415Z,79.60
2019-01-13T21:34:29.511Z,69.47
2019-01-13T21:37:03.399Z,37.30
2019-01-13T21:39:37.569Z,55.33
2019-01-13T21:42:11.129Z,66.30
2019-01-13T21:44:44.379Z,65.07
2019-01-13T21:47:17.361Z,68.83
2019-01-13T21:49:50.424Z,59.90
2019-01-13T21:52:23.814Z,53.33
2019-01-13T21:54:57.294Z,74.53
2019-01-13T21:57:30.649Z,57.53
2019-01-13T22:00:04.858Z,86.73
2019-01-13T22:02:38.774Z,62.57
2019-01-13T22:05:12.759Z,72.13
2019-01-13T22:07:45.754Z,71.23
2019-01-13T22:10:20.641Z,104.40
2019-01-13T22:12:54.219Z,54.87
2019-01-13T22:15:27.119Z,71.67
2019-01-13T22:18:00.198Z,91.60
2019-01-13T22:20:34.579Z,45.67
2019-01-13T22:23:08.044Z,74.07
2019-01-13T22:25:41.464Z,70.17
2019-01-13T22:28:14.387Z,39.57
2019-01-13T22:30:48.125Z,58.13
2019-01-13T22:33:20.878Z,62.37
2019-01-13T22:35:54.363Z,67.57
2019-01-13T22:38:27.310Z,86.77
2019-01-13T22:41:00.436Z,61.80
2019-01-13T22:43:33.319Z,65.87
2019-01-13T22:46:06.743Z,54.23
2019-01-13T22:48:39.719Z,110.37
2019-01-13T22:51:12.919Z,73.03
2019-01-13T22:53:45.888Z,76.13
2019-01-13T22:56:19.344Z,121.80
2019-01-13T22:58:52.299Z,63.83
2019-01-13T23:01:37.714Z,100.20
2019-01-13T23:04:15.344Z,78.40
2019-01-13T23:06:48.894Z,58.73
2019-01-13T23:09:22.279Z,82.77
2019-01-13T23:11:55.539Z,71.10
2019-01-13T23:14:28.268Z,100.47
2019-01-13T23:17:01.226Z,96.67
2019-01-13T23:19:33.503Z,98.13
2019-01-13T23:22:06.808Z,79.50
2019-01-13T23:24:39.654Z,91.50
2019-01-13T23:27:12.698Z,99.90
2019-01-13T23:29:45.619Z,90.33
2019-01-13T23:32:18.733Z,84.97
2019-01-13T23:34:51.949Z,60.27
2019-01-13T23:37:25.299Z,60.27
2019-01-13T23:39:58.024Z,65.37
2019-01-13T23:42:31.178Z,85.67
2019-01-13T23:45:04.039Z,91.90
2019-01-13T23:47:37.509Z,98.50
2019-01-13T23:50:10.993Z,69.87
2019-01-13T23:52:45.039Z,84.30
2019-01-13T23:55:19.903Z,61.70
2019-01-13T23:57:55.194Z,90.87
